sensor_id;sensor_type;location;lat;lon;timestamp;temperature;humidity
51739;DHT22;37815;52.692;6.226;2024-02-16T00:02:40;11.90;99.90
51739;DHT22;37815;52.692;6.226;2024-02-16T00:07:42;11.90;99.90
51739;DHT22;37815;52.692;6.226;2024-02-16T00:12:43;11.90;99.90
51739;DHT22;37815;52.692;6.226;2024-02-16T00:17:44;11.90;99.90
51739;DHT22;37815;52.692;6.226;2024-02-16T00:22:45;11.90;99.90
51739;DHT22;37815;52.692;6.226;2024-02-16T00:27:46;11.90;99.90
51739;DHT22;37815;52.692;6.226;2024-02-16T00:32:46;11.90;99.90
51739;DHT22;37815;52.692;6.226;2024-02-16T00:37:48;11.90;99.90
51739;DHT22;37815;52.692;6.226;2024-02-16T00:42:48;11.90;99.90
51739;DHT22;37815;52.692;6.226;2024-02-16T00:47:49;11.90;99.90
51739;DHT22;37815;52.692;6.226;2024-02-16T00:52:49;11.80;99.90
51739;DHT22;37815;52.692;6.226;2024-02-16T00:57:50;11.80;99.90
51739;DHT22;37815;52.692;6.226;2024-02-16T01:02:51;11.80;99.90
51739;DHT22;37815;52.692;6.226;2024-02-16T01:07:53;11.80;99.90
51739;DHT22;37815;52.692;6.226;2024-02-16T01:12:53;11.80;99.90
51739;DHT22;37815;52.692;6.226;2024-02-16T01:17:56;11.80;99.90
51739;DHT22;37815;52.692;6.226;2024-02-16T01:22:57;11.80;99.90
51739;DHT22;37815;52.692;6.226;2024-02-16T01:27:58;11.80;99.90
51739;DHT22;37815;52.692;6.226;2024-02-16T01:32:59;11.80;99.90
51739;DHT22;37815;52.692;6.226;2024-02-16T01:37:59;11.80;99.90
51739;DHT22;37815;52.692;6.226;2024-02-16T01:43:01;11.80;99.90
51739;DHT22;37815;52.692;6.226;2024-02-16T01:48:02;11.80;99.90
51739;DHT22;37815;52.692;6.226;2024-02-16T01:53:03;11.80;99.90
51739;DHT22;37815;52.692;6.226;2024-02-16T01:58:04;11.80;99.90
51739;DHT22;37815;52.692;6.226;2024-02-16T02:03:05;11.80;99.90
51739;DHT22;37815;52.692;6.226;2024-02-16T02:08:09;11.70;99.90
51739;DHT22;37815;52.692;6.226;2024-02-16T02:13:10;11.80;99.90
51739;DHT22;37815;52.692;6.226;2024-02-16T02:18:11;11.70;99.90
51739;DHT22;37815;52.692;6.226;2024-02-16T02:23:12;11.80;99.90
51739;DHT22;37815;52.692;6.226;2024-02-16T02:28:12;11.70;99.90
51739;DHT22;37815;52.692;6.226;2024-02-16T02:33:13;11.70;99.90
51739;DHT22;37815;52.692;6.226;2024-02-16T02:38:14;11.70;99.90
51739;DHT22;37815;52.692;6.226;2024-02-16T02:43:15;11.70;99.90
51739;DHT22;37815;52.692;6.226;2024-02-16T02:48:16;11.70;99.90
51739;DHT22;37815;52.692;6.226;2024-02-16T02:53:16;11.70;99.90
51739;DHT22;37815;52.692;6.226;2024-02-16T02:58:18;11.70;99.90
51739;DHT22;37815;52.692;6.226;2024-02-16T03:03:19;11.70;99.90
51739;DHT22;37815;52.692;6.226;2024-02-16T03:08:20;11.70;99.90
51739;DHT22;37815;52.692;6.226;2024-02-16T03:13:21;11.70;99.90
51739;DHT22;37815;52.692;6.226;2024-02-16T03:18:22;11.70;99.90
51739;DHT22;37815;52.692;6.226;2024-02-16T03:23:23;11.70;99.90
51739;DHT22;37815;52.692;6.226;2024-02-16T03:28:24;11.60;99.90
51739;DHT22;37815;52.692;6.226;2024-02-16T03:33:24;11.60;99.90
51739;DHT22;37815;52.692;6.226;2024-02-16T03:38:25;11.70;99.90
51739;DHT22;37815;52.692;6.226;2024-02-16T03:43:26;11.60;99.90
51739;DHT22;37815;52.692;6.226;2024-02-16T03:48:27;11.60;99.90
51739;DHT22;37815;52.692;6.226;2024-02-16T03:53:27;11.70;99.90
51739;DHT22;37815;52.692;6.226;2024-02-16T03:58:28;11.60;99.90
51739;DHT22;37815;52.692;6.226;2024-02-16T04:03:29;11.60;99.90
51739;DHT22;37815;52.692;6.226;2024-02-16T04:08:29;11.60;99.90
51739;DHT22;37815;52.692;6.226;2024-02-16T04:13:30;11.60;99.90
51739;DHT22;37815;52.692;6.226;2024-02-16T04:18:32;11.60;99.90
51739;DHT22;37815;52.692;6.226;2024-02-16T04:23:33;11.60;99.90
51739;DHT22;37815;52.692;6.226;2024-02-16T04:28:35;11.60;99.90
51739;DHT22;37815;52.692;6.226;2024-02-16T04:33:35;11.50;99.90
51739;DHT22;37815;52.692;6.226;2024-02-16T04:38:36;11.50;99.90
51739;DHT22;37815;52.692;6.226;2024-02-16T04:43:36;11.60;99.90
51739;DHT22;37815;52.692;6.226;2024-02-16T04:48:37;11.60;99.90
51739;DHT22;37815;52.692;6.226;2024-02-16T04:53:38;11.70;99.90
51739;DHT22;37815;52.692;6.226;2024-02-16T04:58:42;11.50;99.90
51739;DHT22;37815;52.692;6.226;2024-02-16T05:03:43;11.50;99.90
51739;DHT22;37815;52.692;6.226;2024-02-16T05:08:43;11.50;99.90
51739;DHT22;37815;52.692;6.226;2024-02-16T05:13:44;11.50;99.90
51739;DHT22;37815;52.692;6.226;2024-02-16T05:18:45;11.50;99.90
51739;DHT22;37815;52.692;6.226;2024-02-16T05:23:45;11.50;99.90
51739;DHT22;37815;52.692;6.226;2024-02-16T05:28:46;11.50;99.90
51739;DHT22;37815;52.692;6.226;2024-02-16T05:33:49;11.50;99.90
51739;DHT22;37815;52.692;6.226;2024-02-16T05:38:50;11.50;99.90
51739;DHT22;37815;52.692;6.226;2024-02-16T05:43:52;11.60;99.90
51739;DHT22;37815;52.692;6.226;2024-02-16T05:48:52;11.50;99.90
51739;DHT22;37815;52.692;6.226;2024-02-16T05:53:53;11.60;99.90
51739;DHT22;37815;52.692;6.226;2024-02-16T05:58:54;11.50;99.90
51739;DHT22;37815;52.692;6.226;2024-02-16T06:03:54;11.50;99.90
51739;DHT22;37815;52.692;6.226;2024-02-16T06:08:55;11.50;99.90
51739;DHT22;37815;52.692;6.226;2024-02-16T06:13:55;11.50;99.90
51739;DHT22;37815;52.692;6.226;2024-02-16T06:18:56;11.50;99.90
51739;DHT22;37815;52.692;6.226;2024-02-16T06:23:56;11.50;99.90
51739;DHT22;37815;52.692;6.226;2024-02-16T06:28:57;11.40;99.90
51739;DHT22;37815;52.692;6.226;2024-02-16T06:33:58;11.50;99.90
51739;DHT22;37815;52.692;6.226;2024-02-16T06:38:59;11.50;99.90
51739;DHT22;37815;52.692;6.226;2024-02-16T06:43:59;11.50;99.90
51739;DHT22;37815;52.692;6.226;2024-02-16T06:49:00;11.50;99.90
51739;DHT22;37815;52.692;6.226;2024-02-16T06:54:00;11.50;99.90
51739;DHT22;37815;52.692;6.226;2024-02-16T06:59:01;11.60;99.90
51739;DHT22;37815;52.692;6.226;2024-02-16T07:04:02;11.50;99.90
51739;DHT22;37815;52.692;6.226;2024-02-16T07:09:04;11.40;99.90
51739;DHT22;37815;52.692;6.226;2024-02-16T07:14:06;11.50;99.90
51739;DHT22;37815;52.692;6.226;2024-02-16T07:19:08;11.50;99.90
51739;DHT22;37815;52.692;6.226;2024-02-16T07:24:09;11.50;99.90
51739;DHT22;37815;52.692;6.226;2024-02-16T07:29:09;11.50;99.90
51739;DHT22;37815;52.692;6.226;2024-02-16T07:34:10;11.50;99.90
51739;DHT22;37815;52.692;6.226;2024-02-16T07:39:11;11.40;99.90
51739;DHT22;37815;52.692;6.226;2024-02-16T07:44:12;11.50;99.90
51739;DHT22;37815;52.692;6.226;2024-02-16T07:49:13;11.50;99.90
51739;DHT22;37815;52.692;6.226;2024-02-16T07:54:13;11.50;99.90
51739;DHT22;37815;52.692;6.226;2024-02-16T07:59:14;11.50;99.90
51739;DHT22;37815;52.692;6.226;2024-02-16T08:04:15;11.50;99.90
51739;DHT22;37815;52.692;6.226;2024-02-16T08:09:15;11.50;99.90
51739;DHT22;37815;52.692;6.226;2024-02-16T08:14:16;11.60;99.90
51739;DHT22;37815;52.692;6.226;2024-02-16T08:19:17;11.50;99.90
51739;DHT22;37815;52.692;6.226;2024-02-16T08:24:17;11.50;99.90
51739;DHT22;37815;52.692;6.226;2024-02-16T08:29:18;11.60;99.90
51739;DHT22;37815;52.692;6.226;2024-02-16T08:34:18;11.60;99.90
51739;DHT22;37815;52.692;6.226;2024-02-16T08:39:19;11.60;99.90
51739;DHT22;37815;52.692;6.226;2024-02-16T08:44:20;11.70;99.90
51739;DHT22;37815;52.692;6.226;2024-02-16T08:49:21;11.70;99.90
51739;DHT22;37815;52.692;6.226;2024-02-16T08:54:21;11.70;99.90
51739;DHT22;37815;52.692;6.226;2024-02-16T08:59:22;11.90;99.90
51739;DHT22;37815;52.692;6.226;2024-02-16T09:04:22;11.80;99.90
51739;DHT22;37815;52.692;6.226;2024-02-16T09:09:23;11.80;99.90
51739;DHT22;37815;52.692;6.226;2024-02-16T09:14:24;11.80;99.90
51739;DHT22;37815;52.692;6.226;2024-02-16T09:19:24;12.00;99.90
51739;DHT22;37815;52.692;6.226;2024-02-16T09:24:25;12.10;99.90
51739;DHT22;37815;52.692;6.226;2024-02-16T09:29:29;12.10;99.90
51739;DHT22;37815;52.692;6.226;2024-02-16T09:34:29;12.20;99.90
51739;DHT22;37815;52.692;6.226;2024-02-16T09:39:30;12.10;99.90
51739;DHT22;37815;52.692;6.226;2024-02-16T09:44:32;12.20;99.90
51739;DHT22;37815;52.692;6.226;2024-02-16T09:49:35;12.20;99.90
51739;DHT22;37815;52.692;6.226;2024-02-16T09:54:36;12.30;99.90
51739;DHT22;37815;52.692;6.226;2024-02-16T09:59:37;12.40;99.90
51739;DHT22;37815;52.692;6.226;2024-02-16T10:04:37;12.40;99.90
51739;DHT22;37815;52.692;6.226;2024-02-16T10:09:38;12.40;99.90
51739;DHT22;37815;52.692;6.226;2024-02-16T10:14:40;12.50;99.90
51739;DHT22;37815;52.692;6.226;2024-02-16T10:19:41;12.50;99.90
51739;DHT22;37815;52.692;6.226;2024-02-16T10:24:41;12.60;99.90
51739;DHT22;37815;52.692;6.226;2024-02-16T10:29:47;12.60;99.90
51739;DHT22;37815;52.692;6.226;2024-02-16T10:34:50;12.60;99.90
51739;DHT22;37815;52.692;6.226;2024-02-16T10:39:52;12.60;99.90
51739;DHT22;37815;52.692;6.226;2024-02-16T10:44:54;12.60;99.90
51739;DHT22;37815;52.692;6.226;2024-02-16T10:49:55;12.60;99.90
51739;DHT22;37815;52.692;6.226;2024-02-16T10:54:57;12.50;99.90
51739;DHT22;37815;52.692;6.226;2024-02-16T10:59:59;12.50;99.90
51739;DHT22;37815;52.692;6.226;2024-02-16T11:04:59;12.50;99.90
51739;DHT22;37815;52.692;6.226;2024-02-16T11:10:12;12.40;99.90
51739;DHT22;37815;52.692;6.226;2024-02-16T11:15:13;12.40;99.90
51739;DHT22;37815;52.692;6.226;2024-02-16T11:20:14;12.40;99.90
51739;DHT22;37815;52.692;6.226;2024-02-16T11:25:14;12.40;99.90
51739;DHT22;37815;52.692;6.226;2024-02-16T11:30:15;12.30;99.90
51739;DHT22;37815;52.692;6.226;2024-02-16T11:35:15;12.30;99.90
51739;DHT22;37815;52.692;6.226;2024-02-16T11:40:17;12.30;99.90
51739;DHT22;37815;52.692;6.226;2024-02-16T11:45:19;12.20;99.90
51739;DHT22;37815;52.692;6.226;2024-02-16T11:50:19;12.20;99.90
51739;DHT22;37815;52.692;6.226;2024-02-16T11:55:21;12.20;99.90
51739;DHT22;37815;52.692;6.226;2024-02-16T12:00:21;12.20;99.90
51739;DHT22;37815;52.692;6.226;2024-02-16T12:05:22;12.20;99.90
51739;DHT22;37815;52.692;6.226;2024-02-16T12:10:25;12.30;99.90
51739;DHT22;37815;52.692;6.226;2024-02-16T12:15:26;12.20;99.90
51739;DHT22;37815;52.692;6.226;2024-02-16T12:20:27;12.30;99.90
51739;DHT22;37815;52.692;6.226;2024-02-16T12:25:28;12.20;99.90
51739;DHT22;37815;52.692;6.226;2024-02-16T12:30:29;12.20;99.90
51739;DHT22;37815;52.692;6.226;2024-02-16T12:35:29;12.20;99.90
51739;DHT22;37815;52.692;6.226;2024-02-16T12:40:30;12.20;99.90
51739;DHT22;37815;52.692;6.226;2024-02-16T12:45:30;12.20;99.90
51739;DHT22;37815;52.692;6.226;2024-02-16T12:50:32;12.20;99.90
51739;DHT22;37815;52.692;6.226;2024-02-16T12:55:33;12.20;99.90
51739;DHT22;37815;52.692;6.226;2024-02-16T13:00:33;12.20;99.90
51739;DHT22;37815;52.692;6.226;2024-02-16T13:05:34;12.20;99.90
51739;DHT22;37815;52.692;6.226;2024-02-16T13:10:35;12.20;99.90
51739;DHT22;37815;52.692;6.226;2024-02-16T13:15:35;12.20;99.90
51739;DHT22;37815;52.692;6.226;2024-02-16T13:20:36;12.20;99.90
51739;DHT22;37815;52.692;6.226;2024-02-16T13:25:36;12.20;99.90
51739;DHT22;37815;52.692;6.226;2024-02-16T13:30:37;12.20;99.90
51739;DHT22;37815;52.692;6.226;2024-02-16T13:35:37;12.20;99.90
51739;DHT22;37815;52.692;6.226;2024-02-16T13:40:38;12.20;99.90
51739;DHT22;37815;52.692;6.226;2024-02-16T13:45:51;12.40;99.90
51739;DHT22;37815;52.692;6.226;2024-02-16T13:50:54;12.20;99.90
51739;DHT22;37815;52.692;6.226;2024-02-16T13:55:55;12.20;99.90
51739;DHT22;37815;52.692;6.226;2024-02-16T14:00:56;12.20;99.90
51739;DHT22;37815;52.692;6.226;2024-02-16T14:05:57;12.20;99.90
51739;DHT22;37815;52.692;6.226;2024-02-16T14:10:58;12.20;99.90
51739;DHT22;37815;52.692;6.226;2024-02-16T14:15:58;12.30;99.90
51739;DHT22;37815;52.692;6.226;2024-02-16T14:20:59;12.20;99.90
51739;DHT22;37815;52.692;6.226;2024-02-16T14:26:00;12.30;99.90
51739;DHT22;37815;52.692;6.226;2024-02-16T14:31:00;12.30;99.90
51739;DHT22;37815;52.692;6.226;2024-02-16T14:36:02;12.20;99.90
51739;DHT22;37815;52.692;6.226;2024-02-16T14:41:03;12.30;99.90
51739;DHT22;37815;52.692;6.226;2024-02-16T14:46:04;12.30;99.90
51739;DHT22;37815;52.692;6.226;2024-02-16T14:51:04;12.20;99.90
51739;DHT22;37815;52.692;6.226;2024-02-16T14:56:05;12.30;99.90
51739;DHT22;37815;52.692;6.226;2024-02-16T15:01:06;12.30;99.90
51739;DHT22;37815;52.692;6.226;2024-02-16T15:06:06;12.40;99.90
51739;DHT22;37815;52.692;6.226;2024-02-16T15:11:07;12.30;99.90
51739;DHT22;37815;52.692;6.226;2024-02-16T15:16:08;12.30;99.90
51739;DHT22;37815;52.692;6.226;2024-02-16T15:21:09;13.20;99.90
51739;DHT22;37815;52.692;6.226;2024-02-16T15:26:11;12.40;99.90
51739;DHT22;37815;52.692;6.226;2024-02-16T15:31:11;12.40;99.90
51739;DHT22;37815;52.692;6.226;2024-02-16T15:36:12;12.30;99.90
51739;DHT22;37815;52.692;6.226;2024-02-16T15:41:12;12.30;99.90
51739;DHT22;37815;52.692;6.226;2024-02-16T15:46:16;12.30;99.90
51739;DHT22;37815;52.692;6.226;2024-02-16T15:51:16;12.30;99.90
51739;DHT22;37815;52.692;6.226;2024-02-16T15:56:17;12.30;99.90
51739;DHT22;37815;52.692;6.226;2024-02-16T16:01:17;12.40;99.90
51739;DHT22;37815;52.692;6.226;2024-02-16T16:06:18;12.30;99.90
51739;DHT22;37815;52.692;6.226;2024-02-16T16:11:19;12.30;99.90
51739;DHT22;37815;52.692;6.226;2024-02-16T16:16:20;12.30;99.90
51739;DHT22;37815;52.692;6.226;2024-02-16T16:21:22;12.30;99.90
51739;DHT22;37815;52.692;6.226;2024-02-16T16:26:23;12.30;99.90
51739;DHT22;37815;52.692;6.226;2024-02-16T16:31:27;12.30;99.90
51739;DHT22;37815;52.692;6.226;2024-02-16T16:36:28;12.30;99.90
51739;DHT22;37815;52.692;6.226;2024-02-16T16:41:29;12.30;99.90
51739;DHT22;37815;52.692;6.226;2024-02-16T16:46:30;12.30;99.90
51739;DHT22;37815;52.692;6.226;2024-02-16T16:51:30;12.40;99.90
51739;DHT22;37815;52.692;6.226;2024-02-16T16:56:31;12.40;99.90
51739;DHT22;37815;52.692;6.226;2024-02-16T17:01:31;12.50;99.90
51739;DHT22;37815;52.692;6.226;2024-02-16T17:06:32;12.40;99.90
51739;DHT22;37815;52.692;6.226;2024-02-16T17:11:33;12.30;99.90
51739;DHT22;37815;52.692;6.226;2024-02-16T17:16:34;12.40;99.90
51739;DHT22;37815;52.692;6.226;2024-02-16T17:21:35;12.30;99.90
51739;DHT22;37815;52.692;6.226;2024-02-16T17:26:35;12.20;99.90
51739;DHT22;37815;52.692;6.226;2024-02-16T17:31:36;12.30;99.90
51739;DHT22;37815;52.692;6.226;2024-02-16T17:36:36;12.30;99.90
51739;DHT22;37815;52.692;6.226;2024-02-16T17:41:37;12.40;99.90
51739;DHT22;37815;52.692;6.226;2024-02-16T17:46:38;12.30;99.90
51739;DHT22;37815;52.692;6.226;2024-02-16T17:51:39;12.30;99.90
51739;DHT22;37815;52.692;6.226;2024-02-16T17:56:39;12.40;99.90
51739;DHT22;37815;52.692;6.226;2024-02-16T18:01:40;12.40;99.90
51739;DHT22;37815;52.692;6.226;2024-02-16T18:06:43;12.60;99.90
51739;DHT22;37815;52.692;6.226;2024-02-16T18:11:44;12.50;99.90
51739;DHT22;37815;52.692;6.226;2024-02-16T18:16:44;12.40;99.90
51739;DHT22;37815;52.692;6.226;2024-02-16T18:21:45;12.40;99.90
51739;DHT22;37815;52.692;6.226;2024-02-16T18:26:46;12.40;99.90
51739;DHT22;37815;52.692;6.226;2024-02-16T18:31:46;12.30;99.90
51739;DHT22;37815;52.692;6.226;2024-02-16T18:36:47;12.30;99.90
51739;DHT22;37815;52.692;6.226;2024-02-16T18:41:51;12.30;99.90
51739;DHT22;37815;52.692;6.226;2024-02-16T18:46:52;12.20;99.90
51739;DHT22;37815;52.692;6.226;2024-02-16T18:51:52;12.30;99.90
51739;DHT22;37815;52.692;6.226;2024-02-16T18:56:53;12.30;99.90
51739;DHT22;37815;52.692;6.226;2024-02-16T19:01:53;12.20;99.90
51739;DHT22;37815;52.692;6.226;2024-02-16T19:07:01;12.30;99.90
51739;DHT22;37815;52.692;6.226;2024-02-16T19:12:02;12.20;99.90
51739;DHT22;37815;52.692;6.226;2024-02-16T19:17:03;12.20;99.90
51739;DHT22;37815;52.692;6.226;2024-02-16T19:22:03;12.10;99.90
51739;DHT22;37815;52.692;6.226;2024-02-16T19:27:04;12.10;99.90
51739;DHT22;37815;52.692;6.226;2024-02-16T19:32:06;12.10;99.90
51739;DHT22;37815;52.692;6.226;2024-02-16T19:37:07;12.10;99.90
51739;DHT22;37815;52.692;6.226;2024-02-16T19:42:07;12.10;99.90
51739;DHT22;37815;52.692;6.226;2024-02-16T19:47:08;12.10;99.90
51739;DHT22;37815;52.692;6.226;2024-02-16T19:52:09;12.00;99.90
51739;DHT22;37815;52.692;6.226;2024-02-16T19:57:09;12.00;99.90
51739;DHT22;37815;52.692;6.226;2024-02-16T20:02:10;12.20;99.90
51739;DHT22;37815;52.692;6.226;2024-02-16T20:07:11;12.00;99.90
51739;DHT22;37815;52.692;6.226;2024-02-16T20:12:12;12.00;99.90
51739;DHT22;37815;52.692;6.226;2024-02-16T20:17:12;12.00;99.90
51739;DHT22;37815;52.692;6.226;2024-02-16T20:22:16;12.00;99.90
51739;DHT22;37815;52.692;6.226;2024-02-16T20:27:17;12.00;99.90
51739;DHT22;37815;52.692;6.226;2024-02-16T20:32:19;12.00;99.90
51739;DHT22;37815;52.692;6.226;2024-02-16T20:37:22;12.00;99.90
51739;DHT22;37815;52.692;6.226;2024-02-16T20:42:23;12.00;99.90
51739;DHT22;37815;52.692;6.226;2024-02-16T20:47:24;11.90;99.90
51739;DHT22;37815;52.692;6.226;2024-02-16T20:52:25;11.90;99.90
51739;DHT22;37815;52.692;6.226;2024-02-16T20:57:25;11.90;99.90
51739;DHT22;37815;52.692;6.226;2024-02-16T21:02:26;11.90;99.90
51739;DHT22;37815;52.692;6.226;2024-02-16T21:07:27;11.90;99.90
51739;DHT22;37815;52.692;6.226;2024-02-16T21:12:27;11.90;99.90
51739;DHT22;37815;52.692;6.226;2024-02-16T21:17:28;11.80;99.90
51739;DHT22;37815;52.692;6.226;2024-02-16T21:22:29;11.80;99.90
51739;DHT22;37815;52.692;6.226;2024-02-16T21:27:30;11.80;99.90
51739;DHT22;37815;52.692;6.226;2024-02-16T21:32:30;11.80;99.90
51739;DHT22;37815;52.692;6.226;2024-02-16T21:37:31;11.80;99.90
51739;DHT22;37815;52.692;6.226;2024-02-16T21:42:31;11.70;99.90
51739;DHT22;37815;52.692;6.226;2024-02-16T21:47:32;11.70;99.90
51739;DHT22;37815;52.692;6.226;2024-02-16T21:52:35;11.70;99.90
51739;DHT22;37815;52.692;6.226;2024-02-16T21:57:36;11.70;99.90
51739;DHT22;37815;52.692;6.226;2024-02-16T22:02:36;11.70;99.90
51739;DHT22;37815;52.692;6.226;2024-02-16T22:07:37;11.70;99.90
51739;DHT22;37815;52.692;6.226;2024-02-16T22:12:38;11.70;99.90
51739;DHT22;37815;52.692;6.226;2024-02-16T22:17:38;11.70;99.90
51739;DHT22;37815;52.692;6.226;2024-02-16T22:22:39;11.60;99.90
51739;DHT22;37815;52.692;6.226;2024-02-16T22:27:39;11.60;99.90
51739;DHT22;37815;52.692;6.226;2024-02-16T22:32:40;11.60;99.90
51739;DHT22;37815;52.692;6.226;2024-02-16T22:37:41;11.60;99.90
51739;DHT22;37815;52.692;6.226;2024-02-16T22:42:41;11.60;99.90
51739;DHT22;37815;52.692;6.226;2024-02-16T22:47:45;11.60;99.90
51739;DHT22;37815;52.692;6.226;2024-02-16T22:52:45;11.60;99.90
51739;DHT22;37815;52.692;6.226;2024-02-16T22:57:46;11.60;99.90
51739;DHT22;37815;52.692;6.226;2024-02-16T23:02:46;11.60;99.90
51739;DHT22;37815;52.692;6.226;2024-02-16T23:07:47;11.60;99.90
51739;DHT22;37815;52.692;6.226;2024-02-16T23:12:49;11.50;99.90
51739;DHT22;37815;52.692;6.226;2024-02-16T23:17:50;11.60;99.90
51739;DHT22;37815;52.692;6.226;2024-02-16T23:28:05;11.50;99.90
51739;DHT22;37815;52.692;6.226;2024-02-16T23:33:07;11.50;99.90
51739;DHT22;37815;52.692;6.226;2024-02-16T23:38:09;11.60;99.90
51739;DHT22;37815;52.692;6.226;2024-02-16T23:43:10;11.50;99.90
51739;DHT22;37815;52.692;6.226;2024-02-16T23:48:11;11.50;99.90
51739;DHT22;37815;52.692;6.226;2024-02-16T23:53:12;11.50;99.90
51739;DHT22;37815;52.692;6.226;2024-02-16T23:58:13;11.50;99.90
